Orbital elements of FREGAT DEB
| Launched | 17 July 2011 |
| Flight ended | – |
| Launch site | Tyuratam Missile and Space Center, Kazakhstan (Also known as Baikonur Cosmodrome) |
| Owner | Commonwealth of Independent States (former USSR) |
| NORAD ID | 45814 |
| Date fetched |
Epoch osculation |
Inc. [°] |
Ecc. | RA asc node [hr] |
Arg Peri. [°] |
Mean anom [°] |
Mean motion [rev/day] |
Abs. mag |
| Date fetched |
Epoch osculation |
Inc. [°] |
Ecc. | RA asc node [hr] |
Arg Peri. [°] |
Mean anom [°] |
Mean motion [rev/day] |
Abs. mag |
| 2026 May 05 17:57 | 2026 May 04 18:38:51 | 51.0323 | 0.08282 | 21.1205 | 265.1403 | 85.4455 | 11.54396 | – |
| 2026 May 04 17:57 | 2026 Apr 29 13:58:37 | 51.0280 | 0.08287 | 22.0065 | 255.8184 | 85.4455 | 11.54396 | – |
| 2026 May 03 17:57 | 2026 Apr 29 13:58:37 | 51.0280 | 0.08287 | 22.0065 | 255.8184 | 85.4455 | 11.54396 | – |
| 2026 May 02 17:57 | 2026 Apr 29 13:58:37 | 51.0280 | 0.08287 | 22.0065 | 255.8184 | 85.4455 | 11.54396 | – |
| 2026 May 01 17:56 | 2026 Apr 29 13:58:37 | 51.0280 | 0.08287 | 22.0065 | 255.8184 | 85.4455 | 11.54396 | – |
| 2026 Apr 30 17:56 | 2026 Apr 29 13:58:37 | 51.0280 | 0.08287 | 22.0065 | 255.8184 | 85.4455 | 11.54396 | – |
| 2026 Apr 29 17:57 | 2026 Apr 23 00:04:24 | 51.0407 | 0.08334 | 23.1286 | 244.3049 | 85.4455 | 11.54396 | – |
| 2026 Apr 28 17:56 | 2026 Apr 23 00:04:24 | 51.0407 | 0.08334 | 23.1286 | 244.3049 | 85.4455 | 11.54396 | – |
| 2026 Apr 27 17:58 | 2026 Apr 23 00:04:24 | 51.0407 | 0.08334 | 23.1286 | 244.3049 | 85.4455 | 11.54396 | – |
| 2026 Apr 26 17:58 | 2026 Apr 23 00:04:24 | 51.0407 | 0.08334 | 23.1286 | 244.3049 | 85.4455 | 11.54396 | – |
| 2026 Apr 25 17:58 | 2026 Apr 23 00:04:24 | 51.0407 | 0.08334 | 23.1286 | 244.3049 | 85.4455 | 11.54396 | – |
| 2026 Apr 24 17:59 | 2026 Apr 23 00:04:24 | 51.0407 | 0.08334 | 23.1286 | 244.3049 | 85.4455 | 11.54396 | – |
| 2026 Apr 23 17:57 | 2026 Apr 19 08:48:07 | 51.0223 | 0.08401 | 23.7489 | 237.8511 | 85.4455 | 11.54396 | – |
| 2026 Apr 22 17:57 | 2026 Apr 19 08:48:07 | 51.0223 | 0.08401 | 23.7489 | 237.8511 | 85.4455 | 11.54396 | – |
| 2026 Apr 21 17:57 | 2026 Apr 19 08:48:07 | 51.0223 | 0.08401 | 23.7489 | 237.8511 | 85.4455 | 11.54396 | – |
| 2026 Apr 20 17:57 | 2026 Apr 19 08:48:07 | 51.0223 | 0.08401 | 23.7489 | 237.8511 | 85.4455 | 11.54396 | – |
| 2026 Apr 19 17:58 | 2026 Apr 19 08:48:07 | 51.0223 | 0.08401 | 23.7489 | 237.8511 | 85.4455 | 11.54396 | – |
| 2026 Apr 18 17:56 | 2026 Apr 13 03:11:42 | 51.0296 | 0.08530 | 0.8129 | 226.5820 | 85.4455 | 11.54396 | – |
| 2026 Apr 16 17:57 | 2026 Apr 13 03:11:42 | 51.0296 | 0.08530 | 0.8129 | 226.5820 | 85.4455 | 11.54396 | – |
| 2026 Apr 14 17:57 | 2026 Apr 13 03:11:42 | 51.0296 | 0.08530 | 0.8129 | 226.5820 | 85.4455 | 11.54396 | – |
| 2026 Apr 13 17:57 | 2026 Apr 13 03:11:42 | 51.0296 | 0.08530 | 0.8129 | 226.5820 | 85.4455 | 11.54396 | – |
| 2026 Apr 12 17:57 | 2026 Apr 08 11:00:52 | 51.0181 | 0.08619 | 1.6130 | 217.9026 | 85.4455 | 11.54396 | – |
| 2026 Apr 11 17:57 | 2026 Apr 08 11:00:52 | 51.0181 | 0.08619 | 1.6130 | 217.9026 | 85.4455 | 11.54396 | – |
| 2026 Apr 10 17:58 | 2026 Apr 08 11:00:52 | 51.0181 | 0.08619 | 1.6130 | 217.9026 | 85.4455 | 11.54396 | – |
| 2026 Apr 09 18:01 | 2026 Apr 08 11:00:52 | 51.0181 | 0.08619 | 1.6130 | 217.9026 | 85.4455 | 11.54396 | – |
| 2026 Apr 08 17:57 | 2026 Apr 08 11:00:52 | 51.0181 | 0.08619 | 1.6130 | 217.9026 | 85.4455 | 11.54396 | – |